aviador You're here:

KCDW Decoded Metar

CALDWELL in NJ, USA
Report Time2017-04-25 05:53:00
UTC Time2017-04-25 06:34:32
Flight Rules vfr VFR
Wind070° at 10 kt
W.Decomp.*RWY 10: 9.6 kt HW 2.9 kt LCW
RWY 04: 7.3 kt HW 6.8 kt RCW
W.Rank070° ranks 8
Current wind is above 070° avg. (6.3)
Visibility9999 m
Phenomena:N/A
Clouds:Overcast 055 Hf
Expected CloudBase > 2,000 ft AGL from Temp-Dew spread
Ceiling5,500 ft
Temp11°C (ISA -4)
Dew Point06°C (72% RH)
AAT6.5°C
QNH1019 hPa
Density Alt-292 ft
Elevation210 ft
Report Wrong Elevation
Raw Report
KCDW 250553Z AUTO 07010KT 10SM OVC055 11/06 A3010 RMK AO2 SLP199
60000 T01110056 10133 20111 58011 TSNO=

Extra information for KCDW:More info

Metar Taf Metar & Taf Last 4 Metars F.Rules Stats Wind Profile Meteogram Temp Stats Airport Information Weather charts Add Link Nearby VenuesMetar ALERT Operation Metar Decoded Social comments

AIRNAV info for KCDW